Time;durP1;ratioP1;P1;durP2;ratioP2;P2;SDS_P1;SDS_P2;PMS_P1;PMS_P2;Temp;Humidity;BMP_temperature;BMP_pressure;BME280_temperature;BME280_humidity;BME280_pressure;Samples;Min_cycle;Max_cycle;Signal;HPM_P1;HPM_P2
2021/12/02 00:01:33;;;;;;;0.60;0.60;;;;;;;;;;4999268;28;20220;-71
2021/12/02 00:04:38;;;;;;;0.60;0.60;;;;;;;;;;5033777;28;20641;-71
2021/12/02 00:07:42;;;;;;;0.63;0.60;;;;;;;;;;5021608;28;20528;-70
2021/12/02 00:10:46;;;;;;;0.60;0.53;;;;;;;;;;5013883;28;20217;-71
2021/12/02 00:23:29;;;;;;;0.43;0.43;;;;;;;;;;5021446;28;20618;-71
2021/12/02 00:26:36;;;;;;;1.57;0.80;;;;;;;;;;5021425;28;20173;-71
2021/12/02 00:29:41;;;;;;;0.60;0.60;;;;;;;;;;5033273;28;20193;-71
2021/12/02 00:32:47;;;;;;;0.60;0.50;;;;;;;;;;5020888;28;20216;-71
2021/12/02 00:35:52;;;;;;;1.10;0.60;;;;;;;;;;5033712;28;20181;-71
2021/12/02 00:38:57;;;;;;;1.47;0.60;;;;;;;;;;5032846;28;20654;-71
2021/12/02 00:42:01;;;;;;;0.60;0.60;;;;;;;;;;5033017;28;20216;-71
2021/12/02 00:45:05;;;;;;;0.50;0.50;;;;;;;;;;5033298;28;20537;-71
2021/12/02 00:48:11;;;;;;;1.27;0.70;;;;;;;;;;5032525;28;20193;-72
2021/12/02 00:51:18;;;;;;;0.73;0.60;;;;;;;;;;5021049;28;20242;-71
2021/12/02 00:54:24;;;;;;;0.60;0.50;;;;;;;;;;5001482;28;20177;-71
2021/12/02 00:57:29;;;;;;;0.73;0.60;;;;;;;;;;5022222;28;20685;-71
2021/12/02 01:00:33;;;;;;;1.13;0.50;;;;;;;;;;5033337;28;20173;-71
2021/12/02 01:03:38;;;;;;;0.60;0.60;;;;;;;;;;5033084;28;20589;-71
2021/12/02 01:06:43;;;;;;;0.70;0.60;;;;;;;;;;5033110;28;20184;-71
2021/12/02 01:09:48;;;;;;;0.83;0.70;;;;;;;;;;5024646;28;21796;-71
2021/12/02 01:12:53;;;;;;;1.23;0.70;;;;;;;;;;5024838;28;20181;-71
2021/12/02 01:15:58;;;;;;;1.70;0.77;;;;;;;;;;5037259;28;20181;-71
2021/12/02 01:19:03;;;;;;;0.70;0.60;;;;;;;;;;5021023;28;20189;-71
2021/12/02 01:22:08;;;;;;;0.50;0.50;;;;;;;;;;5036621;28;20212;-71
2021/12/02 01:25:12;;;;;;;0.60;0.60;;;;;;;;;;5036562;28;20193;-71
2021/12/02 01:28:17;;;;;;;0.60;0.60;;;;;;;;;;5036294;28;20181;-71
2021/12/02 01:31:22;;;;;;;0.77;0.70;;;;;;;;;;5024321;28;20577;-71
2021/12/02 01:34:27;;;;;;;2.20;1.00;;;;;;;;;;5036153;28;20188;-71
2021/12/02 01:37:31;;;;;;;1.10;0.70;;;;;;;;;;5035687;28;20205;-71
2021/12/02 01:40:36;;;;;;;0.87;0.77;;;;;;;;;;5024302;28;20181;-71
2021/12/02 01:43:54;;;;;;;0.80;0.60;;;;;;;;;;5036265;28;20676;-71
2021/12/02 01:47:00;;;;;;;0.90;0.80;;;;;;;;;;5019546;28;20186;-71
2021/12/02 01:50:09;;;;;;;1.13;0.73;;;;;;;;;;5026034;28;20205;-70
2021/12/02 01:53:15;;;;;;;1.77;0.60;;;;;;;;;;5036056;28;20197;-70
2021/12/02 01:56:20;;;;;;;0.87;0.60;;;;;;;;;;5012650;28;20177;-70
2021/12/02 01:59:28;;;;;;;0.47;0.47;;;;;;;;;;4984897;28;20186;-70
2021/12/02 02:02:35;;;;;;;1.17;0.60;;;;;;;;;;4984780;28;20682;-70
2021/12/02 02:05:40;;;;;;;0.97;0.63;;;;;;;;;;4996452;28;20179;-71
2021/12/02 02:08:46;;;;;;;2.30;0.60;;;;;;;;;;5019993;28;20188;-70
2021/12/02 02:11:50;;;;;;;0.53;0.50;;;;;;;;;;5035464;28;20697;-71
2021/12/02 02:14:55;;;;;;;1.40;0.60;;;;;;;;;;5012510;28;20184;-70
2021/12/02 02:18:14;;;;;;;0.73;0.47;;;;;;;;;;5023801;28;20213;-70
2021/12/02 02:21:20;;;;;;;0.40;0.40;;;;;;;;;;5003962;28;20221;-70
2021/12/02 02:24:24;;;;;;;0.37;0.37;;;;;;;;;;5016008;28;20354;-70
2021/12/02 02:27:28;;;;;;;0.40;0.30;;;;;;;;;;5016703;28;20554;-70
2021/12/02 02:30:33;;;;;;;0.80;0.50;;;;;;;;;;5015759;28;20198;-70
2021/12/02 02:33:38;;;;;;;0.53;0.40;;;;;;;;;;4984198;28;20191;-70
2021/12/02 02:37:17;;;;;;;1.23;0.60;;;;;;;;;;5006755;28;20650;-70
2021/12/02 02:40:16;;;;;;;0.57;0.57;;;;;;;;;;4996103;28;20182;-70
2021/12/02 02:43:23;;;;;;;0.50;0.50;;;;;;;;;;5003545;28;20205;-70
2021/12/02 02:46:30;;;;;;;1.17;0.53;;;;;;;;;;5012151;28;20208;-70
2021/12/02 02:49:34;;;;;;;1.67;0.50;;;;;;;;;;5022412;28;20185;-70
2021/12/02 02:52:38;;;;;;;0.70;0.70;;;;;;;;;;5022768;28;20220;-69
2021/12/02 02:55:47;;;;;;;1.37;0.47;;;;;;;;;;5034397;28;20645;-71
2021/12/02 02:59:14;;;;;;;0.60;0.50;;;;;;;;;;5034498;28;20554;-70
2021/12/02 03:02:34;;;;;;;0.80;0.57;;;;;;;;;;5034956;28;20212;-70
2021/12/02 03:05:55;;;;;;;0.50;0.50;;;;;;;;;;5034740;28;20177;-71
2021/12/02 03:09:26;;;;;;;1.03;0.63;;;;;;;;;;5022675;28;20634;-70
2021/12/02 03:12:33;;;;;;;1.03;0.53;;;;;;;;;;5034292;28;20709;-70
2021/12/02 03:19:02;;;;;;;0.90;0.50;;;;;;;;;;5031102;28;20213;-70
2021/12/02 03:22:06;;;;;;;0.87;0.70;;;;;;;;;;5034189;28;20216;-70
2021/12/02 03:25:11;;;;;;;3.70;0.80;;;;;;;;;;5034154;28;20547;-70
2021/12/02 03:28:15;;;;;;;1.43;0.90;;;;;;;;;;5002442;28;20185;-70
2021/12/02 03:31:21;;;;;;;2.73;0.53;;;;;;;;;;5026149;28;20220;-70
2021/12/02 03:34:25;;;;;;;2.00;0.53;;;;;;;;;;5034162;28;20185;-70
2021/12/02 03:37:30;;;;;;;1.10;0.70;;;;;;;;;;5021875;28;20208;-70
2021/12/02 03:40:34;;;;;;;1.90;0.73;;;;;;;;;;5020351;28;20189;-70
2021/12/02 03:43:41;;;;;;;0.90;0.40;;;;;;;;;;5021657;28;20212;-70
2021/12/02 03:46:45;;;;;;;0.73;0.50;;;;;;;;;;5033881;28;20230;-70
2021/12/02 03:49:49;;;;;;;1.00;0.50;;;;;;;;;;5033753;28;20538;-70
2021/12/02 03:52:53;;;;;;;1.13;0.57;;;;;;;;;;5031808;28;20188;-70
2021/12/02 03:55:58;;;;;;;4.60;0.77;;;;;;;;;;5033480;28;20196;-70
2021/12/02 03:59:03;;;;;;;1.00;0.53;;;;;;;;;;5033907;28;20267;-70
2021/12/02 04:02:06;;;;;;;2.83;0.70;;;;;;;;;;5033381;28;20220;-70
2021/12/02 04:05:11;;;;;;;0.50;0.50;;;;;;;;;;5033122;28;20210;-70
2021/12/02 04:08:16;;;;;;;1.03;0.53;;;;;;;;;;5013932;28;20189;-71
2021/12/02 04:14:53;;;;;;;0.80;0.60;;;;;;;;;;5032833;28;20193;-70
2021/12/02 04:17:57;;;;;;;0.70;0.50;;;;;;;;;;5033319;28;20201;-70
2021/12/02 04:21:01;;;;;;;2.10;0.70;;;;;;;;;;5033012;28;20224;-70
2021/12/02 04:24:06;;;;;;;0.80;0.60;;;;;;;;;;5032984;28;20588;-70
2021/12/02 04:27:11;;;;;;;2.17;0.73;;;;;;;;;;5033226;28;20669;-70
2021/12/02 04:30:18;;;;;;;3.03;0.80;;;;;;;;;;5033391;28;20185;-70
2021/12/02 04:33:23;;;;;;;0.73;0.50;;;;;;;;;;5033631;28;20188;-70
2021/12/02 04:36:26;;;;;;;0.77;0.50;;;;;;;;;;5033398;28;20523;-70
2021/12/02 04:39:31;;;;;;;1.07;0.60;;;;;;;;;;5013842;28;20220;-70
2021/12/02 04:42:35;;;;;;;0.60;0.40;;;;;;;;;;5012866;28;20229;-71
2021/12/02 04:45:39;;;;;;;0.50;0.40;;;;;;;;;;5001497;28;20181;-70
2021/12/02 04:48:43;;;;;;;1.33;0.60;;;;;;;;;;5022485;28;20185;-71
2021/12/02 04:51:47;;;;;;;1.50;0.50;;;;;;;;;;5032431;28;20218;-71
2021/12/02 04:54:51;;;;;;;5.10;0.53;;;;;;;;;;5032814;28;20192;-70
2021/12/02 04:57:56;;;;;;;1.50;0.50;;;;;;;;;;5015489;28;20217;-71
2021/12/02 05:01:00;;;;;;;2.73;0.53;;;;;;;;;;5032622;28;20225;-71
2021/12/02 05:04:04;;;;;;;1.90;0.80;;;;;;;;;;5032656;28;20192;-71
2021/12/02 05:07:08;;;;;;;1.20;0.70;;;;;;;;;;5020306;28;20204;-71
2021/12/02 05:10:12;;;;;;;0.73;0.57;;;;;;;;;;5032865;28;20640;-71
2021/12/02 05:13:16;;;;;;;1.37;0.57;;;;;;;;;;5020802;28;20181;-71
2021/12/02 05:16:20;;;;;;;3.70;0.60;;;;;;;;;;5020732;28;20188;-71
2021/12/02 05:19:24;;;;;;;1.00;0.67;;;;;;;;;;5032581;28;20205;-70
2021/12/02 05:22:28;;;;;;;1.10;0.77;;;;;;;;;;5013435;28;20213;-71
2021/12/02 05:25:32;;;;;;;1.47;0.70;;;;;;;;;;5013494;28;20181;-71
2021/12/02 05:28:37;;;;;;;2.13;0.73;;;;;;;;;;5027354;28;20668;-71
2021/12/02 05:31:40;;;;;;;1.10;0.63;;;;;;;;;;5031176;28;20225;-71
2021/12/02 05:34:49;;;;;;;1.60;0.70;;;;;;;;;;5032659;28;20177;-71
2021/12/02 05:37:53;;;;;;;0.80;0.80;;;;;;;;;;5032493;28;20530;-71
2021/12/02 05:40:58;;;;;;;1.23;0.57;;;;;;;;;;5031678;28;20209;-71
2021/12/02 05:44:02;;;;;;;1.90;0.70;;;;;;;;;;5030110;28;20204;-71
2021/12/02 05:47:06;;;;;;;2.27;0.70;;;;;;;;;;5032444;28;20184;-71
2021/12/02 05:50:10;;;;;;;2.27;1.00;;;;;;;;;;5032461;28;20177;-72
2021/12/02 05:53:16;;;;;;;1.63;0.90;;;;;;;;;;5012866;28;20606;-72
2021/12/02 05:56:20;;;;;;;4.53;0.87;;;;;;;;;;5028971;28;20658;-72
2021/12/02 05:59:24;;;;;;;1.60;0.80;;;;;;;;;;5035876;28;20208;-72
2021/12/02 06:02:28;;;;;;;1.30;0.90;;;;;;;;;;5002445;28;20710;-72
2021/12/02 06:05:33;;;;;;;2.10;0.90;;;;;;;;;;5009271;28;20197;-72
2021/12/02 06:08:37;;;;;;;1.90;0.90;;;;;;;;;;5035628;28;20189;-72
2021/12/02 06:11:41;;;;;;;1.47;0.80;;;;;;;;;;5029709;28;20218;-72
2021/12/02 06:14:46;;;;;;;1.70;0.73;;;;;;;;;;5004097;28;20542;-72
2021/12/02 06:17:50;;;;;;;1.90;0.90;;;;;;;;;;5012883;28;20190;-71
2021/12/02 06:20:54;;;;;;;0.87;0.80;;;;;;;;;;5030457;28;20217;-73
2021/12/02 06:23:58;;;;;;;1.23;0.80;;;;;;;;;;5003778;28;20600;-74
2021/12/02 06:27:02;;;;;;;2.03;1.00;;;;;;;;;;5015518;28;20197;-74
2021/12/02 06:30:07;;;;;;;1.07;0.90;;;;;;;;;;5016426;28;21253;-74
2021/12/02 06:33:12;;;;;;;1.83;0.80;;;;;;;;;;5003631;28;20193;-73
2021/12/02 06:36:16;;;;;;;2.20;0.90;;;;;;;;;;5017254;28;20182;-72
2021/12/02 06:39:21;;;;;;;1.30;0.90;;;;;;;;;;5035389;28;20681;-72
2021/12/02 06:42:26;;;;;;;2.30;1.37;;;;;;;;;;5004617;28;20652;-73
2021/12/02 06:45:30;;;;;;;6.30;1.50;;;;;;;;;;5022849;28;20188;-72
2021/12/02 06:48:35;;;;;;;6.33;3.97;;;;;;;;;;5035052;28;20196;-72
2021/12/02 06:51:39;;;;;;;2.03;1.20;;;;;;;;;;5022622;28;20216;-72
2021/12/02 06:54:43;;;;;;;3.23;1.53;;;;;;;;;;5023077;28;20515;-72
2021/12/02 06:57:48;;;;;;;4.00;2.27;;;;;;;;;;5035287;28;20661;-72
2021/12/02 07:00:52;;;;;;;2.80;1.20;;;;;;;;;;5034377;28;20216;-73
2021/12/02 07:03:56;;;;;;;1.20;1.00;;;;;;;;;;5035203;28;20563;-73
2021/12/02 07:07:00;;;;;;;1.63;1.30;;;;;;;;;;5034781;28;20648;-73
2021/12/02 07:10:06;;;;;;;2.07;1.00;;;;;;;;;;5011353;28;20595;-73
2021/12/02 07:13:11;;;;;;;1.87;1.30;;;;;;;;;;5034548;28;20559;-72
2021/12/02 07:16:15;;;;;;;3.33;1.30;;;;;;;;;;5030271;28;21087;-73
2021/12/02 07:19:19;;;;;;;4.20;1.33;;;;;;;;;;5018549;28;20643;-72
2021/12/02 07:22:23;;;;;;;1.10;1.00;;;;;;;;;;5007653;28;20627;-72
2021/12/02 07:25:29;;;;;;;1.80;1.20;;;;;;;;;;5018936;28;20583;-72
2021/12/02 07:28:35;;;;;;;2.60;1.13;;;;;;;;;;5030732;28;20570;-73
2021/12/02 07:31:40;;;;;;;2.60;1.20;;;;;;;;;;5030856;28;20631;-72
2021/12/02 07:34:45;;;;;;;3.73;1.40;;;;;;;;;;5018644;28;21146;-72
2021/12/02 07:37:51;;;;;;;5.23;1.80;;;;;;;;;;5030731;28;21108;-72
2021/12/02 07:41:03;;;;;;;2.23;1.47;;;;;;;;;;5018351;28;20619;-72
2021/12/02 07:44:07;;;;;;;1.83;1.47;;;;;;;;;;5030493;28;20724;-72
2021/12/02 07:47:12;;;;;;;2.93;1.80;;;;;;;;;;5030868;28;20559;-72
2021/12/02 07:50:18;;;;;;;7.87;5.10;;;;;;;;;;5018567;28;20563;-72
2021/12/02 07:53:24;;;;;;;11.90;7.50;;;;;;;;;;5018948;28;20555;-72
2021/12/02 07:56:32;;;;;;;21.23;12.00;;;;;;;;;;5011027;28;20556;-72
2021/12/02 07:59:38;;;;;;;7.00;4.63;;;;;;;;;;5010530;28;20659;-72
2021/12/02 08:02:44;;;;;;;15.10;9.97;;;;;;;;;;5010965;28;20624;-72
2021/12/02 08:05:48;;;;;;;23.17;13.60;;;;;;;;;;5010620;28;20557;-72
2021/12/02 08:08:52;;;;;;;21.17;12.27;;;;;;;;;;5010501;28;20553;-72
2021/12/02 08:11:59;;;;;;;33.23;17.70;;;;;;;;;;5022903;28;20691;-73
2021/12/02 08:15:06;;;;;;;46.53;23.20;;;;;;;;;;5027775;28;20957;-73
2021/12/02 08:18:10;;;;;;;18.80;8.83;;;;;;;;;;5029234;28;20576;-73
2021/12/02 08:21:15;;;;;;;10.77;6.27;;;;;;;;;;5029716;28;21210;-72
2021/12/02 08:24:22;;;;;;;8.13;5.77;;;;;;;;;;5030105;28;20571;-72
2021/12/02 08:27:26;;;;;;;3.37;2.10;;;;;;;;;;5017357;28;20176;-73
2021/12/02 08:30:33;;;;;;;2.13;1.93;;;;;;;;;;5007003;28;20556;-72
2021/12/02 08:33:37;;;;;;;2.13;1.90;;;;;;;;;;5021172;28;20181;-72
2021/12/02 08:36:59;;;;;;;2.07;1.87;;;;;;;;;;5033378;28;20529;-72
2021/12/02 08:40:04;;;;;;;2.27;2.07;;;;;;;;;;5033247;28;20216;-73
2021/12/02 08:43:12;;;;;;;5.93;2.60;;;;;;;;;;5033093;28;20669;-73
2021/12/02 08:46:20;;;;;;;3.20;2.00;;;;;;;;;;5020536;28;20662;-73
2021/12/02 08:49:24;;;;;;;3.13;1.80;;;;;;;;;;5023372;28;20181;-73
2021/12/02 08:52:30;;;;;;;5.70;2.23;;;;;;;;;;5032729;28;20220;-72
2021/12/02 08:55:35;;;;;;;2.27;1.70;;;;;;;;;;5030253;28;20197;-73
2021/12/02 08:58:39;;;;;;;3.13;1.90;;;;;;;;;;5033644;28;20201;-73
2021/12/02 09:01:43;;;;;;;3.30;2.10;;;;;;;;;;5013057;28;20581;-72
2021/12/02 09:04:47;;;;;;;2.87;2.10;;;;;;;;;;5001142;28;20181;-73
2021/12/02 09:07:51;;;;;;;2.87;2.10;;;;;;;;;;5013677;28;20535;-73
2021/12/02 09:10:57;;;;;;;3.67;1.90;;;;;;;;;;5001129;28;20216;-73
2021/12/02 09:14:04;;;;;;;2.13;1.60;;;;;;;;;;5013040;28;20178;-73
2021/12/02 09:17:09;;;;;;;1.80;1.40;;;;;;;;;;5008368;28;20534;-73
2021/12/02 09:20:15;;;;;;;2.03;1.50;;;;;;;;;;5009427;28;20213;-72
2021/12/02 09:23:19;;;;;;;1.97;1.40;;;;;;;;;;5032612;28;20172;-72
2021/12/02 09:26:23;;;;;;;2.23;1.10;;;;;;;;;;5019404;28;20189;-73
2021/12/02 09:29:27;;;;;;;1.83;1.20;;;;;;;;;;5017927;28;20181;-73
2021/12/02 09:32:33;;;;;;;3.23;1.20;;;;;;;;;;5033015;28;20216;-72
2021/12/02 09:35:37;;;;;;;1.33;0.93;;;;;;;;;;5033057;28;20558;-72
2021/12/02 09:38:43;;;;;;;1.93;1.20;;;;;;;;;;5020313;28;20185;-72
2021/12/02 09:41:47;;;;;;;2.50;1.30;;;;;;;;;;5032989;28;20225;-73
2021/12/02 09:44:59;;;;;;;1.63;1.10;;;;;;;;;;5033025;28;20705;-72
2021/12/02 09:48:04;;;;;;;2.00;1.30;;;;;;;;;;5020472;28;20197;-72
2021/12/02 09:51:14;;;;;;;1.80;1.40;;;;;;;;;;5032101;28;20220;-73
2021/12/02 09:57:38;;;;;;;1.00;0.90;;;;;;;;;;5032362;28;20689;-73
2021/12/02 10:00:50;;;;;;;2.50;0.93;;;;;;;;;;5011530;28;20224;-73
2021/12/02 10:04:04;;;;;;;2.90;0.90;;;;;;;;;;5032079;28;20173;-72
2021/12/02 10:10:40;;;;;;;2.60;1.20;;;;;;;;;;5031499;28;20201;-73
2021/12/02 10:13:47;;;;;;;2.20;1.17;;;;;;;;;;5030247;28;20193;-70
2021/12/02 10:17:08;;;;;;;1.90;1.20;;;;;;;;;;5032208;28;20629;-71
2021/12/02 10:20:30;;;;;;;2.17;1.00;;;;;;;;;;5031979;28;20212;-71
2021/12/02 10:23:43;;;;;;;1.27;1.13;;;;;;;;;;5031920;28;20193;-71
2021/12/02 10:26:51;;;;;;;1.77;1.20;;;;;;;;;;5031820;28;20181;-71
2021/12/02 10:29:55;;;;;;;2.00;1.00;;;;;;;;;;5019593;28;20173;-71
2021/12/02 10:32:59;;;;;;;1.33;1.00;;;;;;;;;;5031640;28;20568;-70
2021/12/02 10:36:20;;;;;;;1.17;1.00;;;;;;;;;;5031906;28;20527;-71
2021/12/02 10:39:25;;;;;;;2.47;1.20;;;;;;;;;;5031306;28;20181;-70
2021/12/02 10:42:32;;;;;;;1.67;1.00;;;;;;;;;;5018946;28;20224;-71
2021/12/02 10:45:36;;;;;;;1.37;0.87;;;;;;;;;;5031432;28;20190;-72
2021/12/02 10:48:52;;;;;;;1.87;0.90;;;;;;;;;;5007940;28;20192;-71
2021/12/02 10:52:00;;;;;;;2.93;1.27;;;;;;;;;;4993971;28;20226;-71
2021/12/02 10:55:10;;;;;;;2.20;1.10;;;;;;;;;;5031615;28;20181;-71
2021/12/02 10:58:15;;;;;;;2.00;1.00;;;;;;;;;;5094984;22;20239;-84
2021/12/02 11:01:39;;;;;;;2.47;1.10;;;;;;;;;;5033847;28;20204;-86
2021/12/02 11:04:54;;;;;;;1.27;0.90;;;;;;;;;;5021292;28;20632;-86
2021/12/02 11:08:05;;;;;;;1.93;0.97;;;;;;;;;;5018777;28;20221;-87
2021/12/02 11:11:30;;;;;;;1.97;1.30;;;;;;;;;;5014038;28;20177;-86
2021/12/02 11:14:36;;;;;;;1.63;1.50;;;;;;;;;;5002727;28;20177;-86
2021/12/02 11:17:42;;;;;;;1.87;1.20;;;;;;;;;;5002847;28;20689;-86
2021/12/02 11:20:57;;;;;;;2.00;1.00;;;;;;;;;;5002308;28;20204;-86
2021/12/02 11:24:01;;;;;;;3.13;1.27;;;;;;;;;;5013295;28;20185;-86
2021/12/02 11:27:20;;;;;;;1.33;1.13;;;;;;;;;;5013816;28;20220;-86
2021/12/02 11:30:29;;;;;;;3.63;1.10;;;;;;;;;;5005065;28;20191;-86
2021/12/02 11:33:37;;;;;;;3.07;1.10;;;;;;;;;;5029264;28;20193;-86
2021/12/02 11:36:42;;;;;;;2.53;0.90;;;;;;;;;;5019446;28;20217;-87
2021/12/02 11:39:46;;;;;;;3.20;0.80;;;;;;;;;;5008489;28;20189;-87
2021/12/02 11:42:51;;;;;;;4.07;2.13;;;;;;;;;;4994112;28;20642;-85
2021/12/02 11:45:57;;;;;;;22.23;10.30;;;;;;;;;;5008836;28;20201;-85
2021/12/02 11:49:01;;;;;;;2.43;1.40;;;;;;;;;;5013114;28;20204;-86
2021/12/02 11:52:05;;;;;;;1.57;0.90;;;;;;;;;;5013201;28;20235;-88
2021/12/02 11:55:19;;;;;;;1.10;0.80;;;;;;;;;;5012406;28;20200;-87
2021/12/02 11:58:25;;;;;;;1.50;0.70;;;;;;;;;;5032002;28;20228;-87
2021/12/02 12:01:31;;;;;;;2.43;0.90;;;;;;;;;;5012919;28;20328;-87
2021/12/02 12:04:38;;;;;;;3.73;0.90;;;;;;;;;;5035254;28;20185;-87
2021/12/02 12:07:48;;;;;;;1.67;0.80;;;;;;;;;;5012843;28;20219;-87
2021/12/02 12:10:52;;;;;;;0.93;0.73;;;;;;;;;;5012135;28;20185;-88
2021/12/02 12:13:57;;;;;;;1.13;0.70;;;;;;;;;;5003450;28;20654;-87
2021/12/02 12:17:09;;;;;;;2.00;0.60;;;;;;;;;;5016903;28;20233;-87
2021/12/02 12:20:17;;;;;;;1.27;0.80;;;;;;;;;;5033853;28;20212;-87
2021/12/02 12:23:29;;;;;;;2.13;0.80;;;;;;;;;;5024673;28;20658;-86
2021/12/02 12:26:36;;;;;;;0.67;0.50;;;;;;;;;;5002413;28;20182;-86
2021/12/02 12:29:41;;;;;;;0.83;0.60;;;;;;;;;;5022977;28;20173;-87
2021/12/02 12:32:59;;;;;;;1.07;0.80;;;;;;;;;;5030183;28;20196;-86
2021/12/02 12:36:14;;;;;;;2.17;0.97;;;;;;;;;;5043733;28;20661;-87
2021/12/02 12:39:19;;;;;;;1.80;0.80;;;;;;;;;;5011129;28;20506;-85
2021/12/02 12:42:23;;;;;;;0.80;0.80;;;;;;;;;;5034460;28;20264;-85
2021/12/02 12:45:31;;;;;;;0.80;0.63;;;;;;;;;;5011442;28;20192;-85
2021/12/02 12:48:35;;;;;;;1.07;0.60;;;;;;;;;;5008257;28;20213;-85
2021/12/02 12:51:48;;;;;;;2.97;0.93;;;;;;;;;;5018932;28;20200;-86
2021/12/02 12:55:14;;;;;;;3.67;2.40;;;;;;;;;;5011842;28;20193;-85
2021/12/02 12:58:25;;;;;;;2.37;1.03;;;;;;;;;;5025133;28;20217;-85
2021/12/02 13:01:30;;;;;;;2.07;1.27;;;;;;;;;;5018743;28;20208;-85
2021/12/02 13:04:50;;;;;;;2.67;2.03;;;;;;;;;;5022336;28;20188;-85
2021/12/02 13:08:31;;;;;;;2.93;1.50;;;;;;;;;;5003378;28;20220;-85
2021/12/02 13:11:35;;;;;;;1.17;0.83;;;;;;;;;;5014807;28;20189;-86
2021/12/02 13:14:42;;;;;;;1.00;0.80;;;;;;;;;;5015520;28;20531;-85
2021/12/02 13:17:51;;;;;;;0.97;0.83;;;;;;;;;;5030386;28;20221;-85
2021/12/02 13:20:56;;;;;;;2.33;1.00;;;;;;;;;;4993562;28;20218;-85
2021/12/02 13:24:19;;;;;;;1.63;0.90;;;;;;;;;;5015913;28;20173;-86
2021/12/02 13:27:24;;;;;;;1.50;0.80;;;;;;;;;;5018347;28;20221;-85
2021/12/02 13:30:28;;;;;;;1.40;0.97;;;;;;;;;;5012963;28;20649;-85
2021/12/02 13:33:58;;;;;;;1.17;0.67;;;;;;;;;;5035093;28;20193;-85
2021/12/02 13:37:07;;;;;;;1.10;0.63;;;;;;;;;;5012266;28;20224;-85
2021/12/02 13:40:14;;;;;;;1.80;0.90;;;;;;;;;;5026265;28;20183;-85
2021/12/02 13:43:19;;;;;;;1.70;0.70;;;;;;;;;;5033767;28;20197;-86
2021/12/02 13:46:34;;;;;;;1.13;0.60;;;;;;;;;;5026941;28;20197;-86
2021/12/02 13:49:42;;;;;;;2.37;1.37;;;;;;;;;;5015005;28;20198;-86
2021/12/02 13:52:51;;;;;;;3.67;1.83;;;;;;;;;;5038407;28;20185;-85
2021/12/02 13:55:56;;;;;;;1.50;1.00;;;;;;;;;;5041855;28;20196;-85
2021/12/02 13:59:16;;;;;;;2.73;1.70;;;;;;;;;;5030719;28;20180;-85
2021/12/02 14:02:25;;;;;;;2.50;1.63;;;;;;;;;;5018618;28;20212;-85
2021/12/02 14:05:33;;;;;;;3.50;1.97;;;;;;;;;;5019959;28;20558;-85
2021/12/02 14:08:38;;;;;;;1.40;1.30;;;;;;;;;;5001869;28;20709;-84
2021/12/02 14:11:43;;;;;;;1.03;0.93;;;;;;;;;;5014548;28;20595;-84
2021/12/02 14:15:02;;;;;;;1.20;1.10;;;;;;;;;;5012160;28;20174;-84
2021/12/02 14:18:18;;;;;;;0.60;0.60;;;;;;;;;;5029354;28;20216;-84
2021/12/02 14:21:22;;;;;;;1.77;0.60;;;;;;;;;;5013101;28;20616;-85
2021/12/02 14:24:26;;;;;;;1.20;0.90;;;;;;;;;;5014253;28;20623;-86
2021/12/02 14:27:30;;;;;;;0.60;0.60;;;;;;;;;;5026837;28;20651;-86
2021/12/02 14:30:40;;;;;;;0.80;0.80;;;;;;;;;;5004410;28;20540;-86
2021/12/02 14:33:45;;;;;;;8.10;3.97;;;;;;;;;;5015774;28;21105;-86
2021/12/02 14:36:51;;;;;;;5.73;4.03;;;;;;;;;;5027218;28;20612;-86
2021/12/02 14:39:56;;;;;;;3.77;2.60;;;;;;;;;;5015427;28;20608;-86
2021/12/02 14:43:17;;;;;;;6.43;3.90;;;;;;;;;;5026651;28;20883;-85
2021/12/02 14:46:51;;;;;;;2.00;1.20;;;;;;;;;;5026560;28;20545;-85
2021/12/02 14:50:06;;;;;;;1.07;0.90;;;;;;;;;;5015210;28;20552;-85
2021/12/02 14:53:29;;;;;;;1.03;1.00;;;;;;;;;;5004532;28;20545;-85
2021/12/02 14:56:35;;;;;;;3.37;2.70;;;;;;;;;;5026955;28;20557;-85
2021/12/02 14:59:55;;;;;;;1.10;1.00;;;;;;;;;;5003781;28;20592;-85
2021/12/02 15:03:00;;;;;;;1.90;0.60;;;;;;;;;;4993256;28;20863;-85
2021/12/02 15:06:03;;;;;;;0.73;0.60;;;;;;;;;;5004061;28;20596;-85
2021/12/02 15:09:35;;;;;;;0.50;0.50;;;;;;;;;;5014497;28;20592;-85
2021/12/02 15:12:42;;;;;;;1.50;1.27;;;;;;;;;;5015303;28;21072;-85
2021/12/02 15:15:51;;;;;;;3.83;3.33;;;;;;;;;;5003964;28;20541;-85
2021/12/02 15:18:56;;;;;;;5.50;4.87;;;;;;;;;;5003630;28;20553;-85
2021/12/02 15:22:00;;;;;;;1.73;1.63;;;;;;;;;;4992453;28;20589;-85
2021/12/02 15:25:35;;;;;;;1.37;1.27;;;;;;;;;;4992664;28;20545;-85
2021/12/02 15:28:49;;;;;;;2.40;2.20;;;;;;;;;;5011653;28;20651;-84
2021/12/02 15:31:53;;;;;;;1.93;1.80;;;;;;;;;;5006328;28;20584;-86
2021/12/02 15:34:57;;;;;;;1.50;1.40;;;;;;;;;;5023003;28;20532;-86
2021/12/02 15:38:05;;;;;;;2.63;1.40;;;;;;;;;;5034036;28;20607;-84
2021/12/02 15:41:11;;;;;;;1.07;1.00;;;;;;;;;;5011088;28;20651;-83
2021/12/02 15:44:17;;;;;;;2.30;0.90;;;;;;;;;;5022987;28;21142;-83
2021/12/02 15:47:22;;;;;;;2.40;2.20;;;;;;;;;;5020063;28;20643;-86
2021/12/02 15:50:28;;;;;;;1.73;1.63;;;;;;;;;;5011524;28;21104;-86
2021/12/02 15:53:33;;;;;;;1.30;1.20;;;;;;;;;;5011595;28;20583;-86
2021/12/02 15:56:39;;;;;;;1.20;1.10;;;;;;;;;;4997611;28;20643;-87
2021/12/02 15:59:44;;;;;;;21.80;14.13;;;;;;;;;;4994787;28;20588;-87
2021/12/02 16:02:53;;;;;;;11.93;7.87;;;;;;;;;;4983936;28;21118;-89
2021/12/02 16:15:53;;;;;;;11.90;8.63;;;;;;;;;;4951022;28;20626;-86
2021/12/02 16:18:57;;;;;;;41.13;23.40;;;;;;;;;;4956153;28;20618;-85
2021/12/02 16:22:02;;;;;;;37.43;21.37;;;;;;;;;;5001652;28;20631;-85
2021/12/02 16:25:07;;;;;;;19.27;11.70;;;;;;;;;;4980909;28;20609;-86
2021/12/02 16:28:11;;;;;;;12.37;10.47;;;;;;;;;;4982704;28;21081;-86
2021/12/02 16:31:16;;;;;;;3.97;3.67;;;;;;;;;;4986013;28;20588;-86
2021/12/02 16:34:20;;;;;;;2.63;2.40;;;;;;;;;;4987941;28;20572;-85
2021/12/02 16:37:25;;;;;;;2.93;2.70;;;;;;;;;;4964619;28;21115;-86
2021/12/02 16:40:31;;;;;;;2.13;1.93;;;;;;;;;;4983784;28;21159;-87
2021/12/02 16:43:35;;;;;;;2.97;2.10;;;;;;;;;;4972113;28;21094;-87
2021/12/02 16:46:42;;;;;;;10.57;5.83;;;;;;;;;;4968836;28;20644;-87
2021/12/02 16:49:47;;;;;;;5.70;3.67;;;;;;;;;;4991367;28;20589;-85
2021/12/02 17:01:45;;;;;;;10.47;5.47;;;;;;;;;;4917358;29;20920;-85
2021/12/02 17:04:50;;;;;;;4.57;2.73;;;;;;;;;;4980529;28;20619;-87
2021/12/02 17:07:54;;;;;;;11.50;10.30;;;;;;;;;;4990869;28;20632;-86
2021/12/02 17:11:02;;;;;;;13.10;7.40;;;;;;;;;;4987852;28;20598;-86
2021/12/02 17:14:06;;;;;;;12.67;11.37;;;;;;;;;;4991023;28;20942;-86
2021/12/02 17:17:13;;;;;;;15.00;10.50;;;;;;;;;;4993494;28;21270;-86
2021/12/02 17:20:18;;;;;;;47.03;29.47;;;;;;;;;;5009427;28;20598;-85
2021/12/02 17:23:25;;;;;;;61.70;35.30;;;;;;;;;;5003721;28;20643;-87
2021/12/02 17:26:29;;;;;;;23.10;14.00;;;;;;;;;;5008435;28;20987;-86
2021/12/02 17:29:35;;;;;;;14.77;10.57;;;;;;;;;;5019539;28;21201;-85
2021/12/02 17:32:40;;;;;;;7.00;5.40;;;;;;;;;;5008577;28;20603;-85
2021/12/02 17:35:44;;;;;;;9.63;7.27;;;;;;;;;;4994595;28;20572;-85
2021/12/02 17:38:50;;;;;;;12.27;10.10;;;;;;;;;;5017657;28;20591;-85
2021/12/02 17:41:56;;;;;;;7.93;7.13;;;;;;;;;;4997879;28;20643;-86
2021/12/02 17:45:01;;;;;;;5.93;4.97;;;;;;;;;;5002025;28;20592;-85
2021/12/02 17:48:06;;;;;;;4.17;3.77;;;;;;;;;;5001033;28;21215;-85
2021/12/02 17:51:10;;;;;;;4.67;3.80;;;;;;;;;;5009713;28;20640;-87
2021/12/02 17:54:16;;;;;;;4.20;3.63;;;;;;;;;;5000820;28;21174;-86
2021/12/02 17:57:20;;;;;;;4.80;3.37;;;;;;;;;;5011725;28;20630;-86
2021/12/02 18:00:27;;;;;;;4.50;3.13;;;;;;;;;;5003628;28;20619;-86
2021/12/02 18:03:31;;;;;;;4.40;3.47;;;;;;;;;;5016174;28;20652;-86
2021/12/02 18:06:36;;;;;;;8.87;5.23;;;;;;;;;;5017890;28;20969;-87
2021/12/02 18:09:40;;;;;;;11.17;7.93;;;;;;;;;;5014777;28;20624;-87
2021/12/02 18:12:47;;;;;;;43.23;27.73;;;;;;;;;;5008896;28;20654;-86
2021/12/02 18:15:51;;;;;;;27.37;18.87;;;;;;;;;;4992391;28;20624;-86
2021/12/02 18:18:56;;;;;;;10.33;7.13;;;;;;;;;;5003769;28;20611;-85
2021/12/02 18:22:00;;;;;;;10.70;7.43;;;;;;;;;;5031548;28;20635;-86
2021/12/02 18:25:05;;;;;;;4.70;3.70;;;;;;;;;;5033941;28;20603;-87
2021/12/02 18:28:10;;;;;;;4.27;3.40;;;;;;;;;;5001032;28;20638;-87
2021/12/02 18:31:14;;;;;;;6.60;4.50;;;;;;;;;;5000141;28;20564;-85
2021/12/02 18:34:18;;;;;;;8.83;4.07;;;;;;;;;;5012731;28;20600;-84
2021/12/02 18:37:22;;;;;;;5.77;4.40;;;;;;;;;;4994841;28;20654;-86
2021/12/02 18:40:26;;;;;;;6.13;4.10;;;;;;;;;;5021835;28;20564;-86
2021/12/02 18:43:31;;;;;;;8.63;4.93;;;;;;;;;;5020179;28;20638;-86
2021/12/02 18:46:38;;;;;;;5.97;4.60;;;;;;;;;;5031907;28;20967;-86
2021/12/02 18:49:43;;;;;;;15.47;8.70;;;;;;;;;;4998131;28;20587;-86
2021/12/02 18:52:47;;;;;;;13.20;8.63;;;;;;;;;;5019497;28;20595;-86
2021/12/02 18:55:52;;;;;;;11.43;7.00;;;;;;;;;;5020129;28;20611;-86
2021/12/02 18:58:57;;;;;;;8.80;6.40;;;;;;;;;;5010850;28;20579;-87
2021/12/02 19:02:51;;;;;;;6.23;4.93;;;;;;;;;;5009585;28;20568;-89
2021/12/02 19:26:19;;;;;;;8.13;5.03;;;;;;;;;;5031411;28;20596;-71
2021/12/02 19:29:23;;;;;;;8.17;5.70;;;;;;;;;;5034055;28;21170;-71
2021/12/02 19:32:31;;;;;;;7.93;5.60;;;;;;;;;;5050808;28;20630;-71
2021/12/02 19:35:36;;;;;;;7.07;5.17;;;;;;;;;;5034026;28;20605;-71
2021/12/02 19:38:41;;;;;;;7.13;5.40;;;;;;;;;;5032623;28;20560;-71
2021/12/02 19:41:47;;;;;;;6.80;5.47;;;;;;;;;;5050636;28;20630;-71